Time;durP1;ratioP1;P1;durP2;ratioP2;P2;SDS_P1;SDS_P2;PMS_P1;PMS_P2;Temp;Humidity;BMP_temperature;BMP_pressure;BME280_temperature;BME280_humidity;BME280_pressure;Samples;Min_cycle;Max_cycle;Signal;HPM_P1;HPM_P2
2024/01/31 00:00:19;;;;;;;;;;;17.20;61.70;;;;;;5020114;28;1471;-67
2024/01/31 00:02:45;;;;;;;;;;;17.20;61.70;;;;;;5020995;28;1558;-67
2024/01/31 00:05:11;;;;;;;;;;;17.20;61.70;;;;;;5018731;28;1529;-67
2024/01/31 00:07:37;;;;;;;;;;;17.20;61.80;;;;;;5015733;28;1906;-67
2024/01/31 00:10:03;;;;;;;;;;;17.20;61.70;;;;;;5016674;28;1345;-67
2024/01/31 00:12:29;;;;;;;;;;;17.20;61.80;;;;;;5021313;28;1399;-67
2024/01/31 00:14:54;;;;;;;;;;;17.10;61.70;;;;;;5017503;28;1443;-68
2024/01/31 00:17:20;;;;;;;;;;;17.10;61.70;;;;;;5020273;28;1389;-67
2024/01/31 00:19:45;;;;;;;;;;;17.20;61.80;;;;;;5021697;28;1615;-67
2024/01/31 00:22:10;;;;;;;;;;;17.20;61.80;;;;;;5020129;28;1432;-68
2024/01/31 00:24:36;;;;;;;;;;;17.10;61.70;;;;;;5019670;28;1654;-68
2024/01/31 00:27:02;;;;;;;;;;;17.10;61.80;;;;;;5016728;28;1898;-67
2024/01/31 00:29:27;;;;;;;;;;;17.10;61.80;;;;;;5020784;28;1312;-68
2024/01/31 00:31:53;;;;;;;;;;;17.10;61.80;;;;;;5021179;28;1536;-67
2024/01/31 00:34:18;;;;;;;;;;;17.10;61.80;;;;;;5017354;28;1313;-68
2024/01/31 00:36:44;;;;;;;;;;;17.10;61.80;;;;;;5018672;28;1578;-67
2024/01/31 00:39:10;;;;;;;;;;;17.10;61.80;;;;;;5020013;28;1446;-68
2024/01/31 00:41:35;;;;;;;;;;;17.10;61.80;;;;;;5019553;28;1425;-68
2024/01/31 00:44:01;;;;;;;;;;;17.10;61.80;;;;;;5018636;28;1592;-68
2024/01/31 00:46:26;;;;;;;;;;;17.10;61.90;;;;;;5016750;28;1531;-68
2024/01/31 00:48:52;;;;;;;;;;;17.10;61.90;;;;;;5015197;28;1962;-68
2024/01/31 00:51:17;;;;;;;;;;;17.10;61.90;;;;;;5018744;28;1363;-67
2024/01/31 00:53:43;;;;;;;;;;;17.10;61.90;;;;;;5017844;28;1212;-68
2024/01/31 00:56:09;;;;;;;;;;;17.10;62.00;;;;;;5016094;28;1375;-68
2024/01/31 00:58:34;;;;;;;;;;;17.10;62.00;;;;;;5015329;28;1501;-68
2024/01/31 01:01:00;;;;;;;;;;;17.10;62.00;;;;;;5019892;28;1371;-68
2024/01/31 01:03:25;;;;;;;;;;;17.10;62.00;;;;;;5020081;28;1476;-68
2024/01/31 01:05:51;;;;;;;;;;;17.10;62.00;;;;;;5021490;28;1422;-68
2024/01/31 01:08:16;;;;;;;;;;;17.00;62.00;;;;;;5022570;28;2001;-68
2024/01/31 01:10:42;;;;;;;;;;;17.10;62.00;;;;;;5022115;28;1609;-68
2024/01/31 01:13:07;;;;;;;;;;;17.10;62.10;;;;;;5021735;28;1403;-68
2024/01/31 01:15:33;;;;;;;;;;;17.10;62.00;;;;;;5022046;28;1538;-68
2024/01/31 01:17:58;;;;;;;;;;;17.10;62.10;;;;;;5019732;28;1378;-68
2024/01/31 01:20:24;;;;;;;;;;;17.00;62.00;;;;;;5023623;28;1415;-68
2024/01/31 01:22:49;;;;;;;;;;;17.10;62.10;;;;;;5018222;28;1474;-68
2024/01/31 01:25:15;;;;;;;;;;;17.10;62.10;;;;;;5017888;28;1321;-68
2024/01/31 01:27:42;;;;;;;;;;;17.10;62.80;;;;;;5019061;28;1981;-69
2024/01/31 01:30:08;;;;;;;;;;;17.20;63.90;;;;;;5025379;28;1482;-70
2024/01/31 01:32:34;;;;;;;;;;;17.30;64.30;;;;;;5019831;28;1520;-70
2024/01/31 01:34:59;;;;;;;;;;;17.40;63.80;;;;;;5016926;28;1488;-70
2024/01/31 01:37:25;;;;;;;;;;;17.50;63.70;;;;;;5018120;28;1603;-71
2024/01/31 01:39:50;;;;;;;;;;;17.60;63.20;;;;;;5019779;28;1574;-70
2024/01/31 01:42:16;;;;;;;;;;;17.60;62.70;;;;;;5018794;28;1447;-70
2024/01/31 01:44:44;;;;;;;;;;;17.60;62.10;;;;;;5018306;28;1656;-70
2024/01/31 01:47:10;;;;;;;;;;;17.60;61.90;;;;;;5019526;28;1902;-70
2024/01/31 01:49:36;;;;;;;;;;;17.50;61.90;;;;;;5022596;28;1226;-69
2024/01/31 01:52:01;;;;;;;;;;;17.50;62.00;;;;;;5019448;28;1519;-70
2024/01/31 01:54:27;;;;;;;;;;;17.50;62.20;;;;;;5014215;28;1382;-70
2024/01/31 01:56:52;;;;;;;;;;;17.40;62.20;;;;;;5020182;28;1602;-71
2024/01/31 01:59:18;;;;;;;;;;;17.40;62.20;;;;;;5019239;28;1420;-70
2024/01/31 02:01:43;;;;;;;;;;;17.40;62.30;;;;;;5018177;28;1512;-70
2024/01/31 02:04:09;;;;;;;;;;;17.30;62.30;;;;;;5021660;28;1461;-70
2024/01/31 02:06:34;;;;;;;;;;;17.30;62.40;;;;;;5022713;28;1523;-69
2024/01/31 02:09:01;;;;;;;;;;;17.30;62.40;;;;;;5054678;28;1914;-71
2024/01/31 02:11:26;;;;;;;;;;;17.30;62.50;;;;;;5021556;28;1593;-70
2024/01/31 02:13:51;;;;;;;;;;;17.30;62.50;;;;;;5024633;28;1587;-71
2024/01/31 02:16:17;;;;;;;;;;;17.30;63.30;;;;;;5022732;28;1438;-70
2024/01/31 02:18:43;;;;;;;;;;;17.20;62.50;;;;;;5022606;28;1972;-71
2024/01/31 02:21:09;;;;;;;;;;;17.20;62.60;;;;;;5020827;28;1383;-71
2024/01/31 02:23:34;;;;;;;;;;;17.20;62.50;;;;;;5020510;28;1388;-70
2024/01/31 02:26:00;;;;;;;;;;;17.20;62.60;;;;;;5021363;28;1271;-70
2024/01/31 02:28:25;;;;;;;;;;;17.20;62.60;;;;;;5022650;28;1969;-70
2024/01/31 02:30:51;;;;;;;;;;;17.20;62.60;;;;;;5020525;28;1384;-70
2024/01/31 02:33:16;;;;;;;;;;;17.20;62.60;;;;;;5020450;28;1461;-70
2024/01/31 02:35:42;;;;;;;;;;;17.20;62.60;;;;;;5007439;28;1667;-70
2024/01/31 02:38:07;;;;;;;;;;;17.20;62.60;;;;;;5018616;28;1679;-70
2024/01/31 02:40:33;;;;;;;;;;;17.20;62.70;;;;;;5020633;28;1398;-70
2024/01/31 02:42:59;;;;;;;;;;;17.10;62.60;;;;;;5018330;28;1661;-70
2024/01/31 02:45:25;;;;;;;;;;;17.10;62.60;;;;;;5022080;28;1500;-71
2024/01/31 02:47:50;;;;;;;;;;;17.10;62.60;;;;;;5021782;28;2016;-69
2024/01/31 02:50:16;;;;;;;;;;;17.10;62.70;;;;;;5021835;28;1355;-72
2024/01/31 02:52:41;;;;;;;;;;;17.10;62.70;;;;;;5020074;28;1492;-71
2024/01/31 02:55:07;;;;;;;;;;;17.10;62.60;;;;;;5016967;28;1640;-72
2024/01/31 02:57:34;;;;;;;;;;;17.10;62.60;;;;;;5023716;28;1444;-71
2024/01/31 03:00:00;;;;;;;;;;;17.10;62.70;;;;;;5021977;28;1458;-71
2024/01/31 03:02:25;;;;;;;;;;;17.00;62.60;;;;;;5020826;28;1507;-70
2024/01/31 03:04:51;;;;;;;;;;;17.10;62.70;;;;;;5017798;28;1616;-70
2024/01/31 03:07:16;;;;;;;;;;;17.10;62.80;;;;;;5020940;28;1969;-71
2024/01/31 03:09:42;;;;;;;;;;;17.00;62.70;;;;;;5021928;28;1414;-71
2024/01/31 03:12:07;;;;;;;;;;;17.10;62.70;;;;;;5020933;28;1624;-72
2024/01/31 03:14:33;;;;;;;;;;;17.10;62.80;;;;;;5021233;28;1373;-71
2024/01/31 03:16:58;;;;;;;;;;;17.10;62.80;;;;;;5018893;28;1321;-70
2024/01/31 03:19:24;;;;;;;;;;;17.00;62.70;;;;;;5022738;28;1424;-70
2024/01/31 03:21:50;;;;;;;;;;;17.10;62.80;;;;;;5023093;28;1464;-70
2024/01/31 03:24:15;;;;;;;;;;;17.10;62.80;;;;;;5024217;28;1458;-69
2024/01/31 03:26:41;;;;;;;;;;;17.10;62.80;;;;;;5020418;28;1417;-71
2024/01/31 03:29:06;;;;;;;;;;;17.10;62.80;;;;;;5017321;28;1914;-71
2024/01/31 03:31:32;;;;;;;;;;;17.00;62.70;;;;;;5022733;28;1441;-70
2024/01/31 03:33:57;;;;;;;;;;;17.00;62.70;;;;;;5021099;28;1065;-70
2024/01/31 03:36:23;;;;;;;;;;;17.00;62.80;;;;;;5017527;28;1466;-71
2024/01/31 03:38:48;;;;;;;;;;;17.00;62.70;;;;;;5020441;28;1250;-70
2024/01/31 03:41:14;;;;;;;;;;;17.00;62.70;;;;;;5019547;28;1279;-69
2024/01/31 03:43:40;;;;;;;;;;;17.00;62.80;;;;;;5017458;28;1348;-71
2024/01/31 03:46:05;;;;;;;;;;;17.00;62.80;;;;;;5019805;28;1378;-71
2024/01/31 03:48:31;;;;;;;;;;;17.00;62.70;;;;;;5022196;28;1962;-70
2024/01/31 03:50:58;;;;;;;;;;;17.00;62.80;;;;;;5018720;28;1476;-70
2024/01/31 03:53:27;;;;;;;;;;;17.00;62.80;;;;;;5019407;28;1564;-70
2024/01/31 03:55:52;;;;;;;;;;;17.00;62.80;;;;;;5025236;28;1621;-70
2024/01/31 03:58:17;;;;;;;;;;;17.00;62.80;;;;;;5019804;28;1270;-70
2024/01/31 04:00:43;;;;;;;;;;;17.00;62.80;;;;;;5020789;28;1676;-71
2024/01/31 04:03:09;;;;;;;;;;;17.00;62.80;;;;;;5020096;28;1369;-71
2024/01/31 04:05:34;;;;;;;;;;;17.00;62.90;;;;;;5020057;28;1339;-71
2024/01/31 04:08:00;;;;;;;;;;;17.00;62.80;;;;;;5019013;28;1968;-71
2024/01/31 04:10:26;;;;;;;;;;;17.00;62.90;;;;;;5020837;28;1189;-71
2024/01/31 04:12:52;;;;;;;;;;;17.00;62.80;;;;;;5010987;28;1406;-71
2024/01/31 04:15:18;;;;;;;;;;;17.00;62.90;;;;;;5019503;28;1228;-71
2024/01/31 04:17:43;;;;;;;;;;;17.00;62.90;;;;;;5019857;28;1454;-71
2024/01/31 04:20:09;;;;;;;;;;;17.00;62.90;;;;;;5026535;28;899;-70
2024/01/31 04:22:34;;;;;;;;;;;17.00;62.90;;;;;;5021022;28;946;-71
2024/01/31 04:25:00;;;;;;;;;;;17.00;62.80;;;;;;5020118;28;1215;-70
2024/01/31 04:27:25;;;;;;;;;;;17.00;62.90;;;;;;5020050;28;1960;-70
2024/01/31 04:29:51;;;;;;;;;;;17.00;62.90;;;;;;5018137;28;1018;-70
2024/01/31 04:32:16;;;;;;;;;;;16.90;62.90;;;;;;5018439;28;1128;-70
2024/01/31 04:34:42;;;;;;;;;;;17.00;62.90;;;;;;5021162;28;1557;-70
2024/01/31 04:37:07;;;;;;;;;;;17.00;62.90;;;;;;5018535;28;1520;-69
2024/01/31 04:39:34;;;;;;;;;;;17.00;62.90;;;;;;5017992;28;1234;-69
2024/01/31 04:42:00;;;;;;;;;;;17.00;62.90;;;;;;5017673;28;1272;-69
2024/01/31 04:44:25;;;;;;;;;;;16.90;62.90;;;;;;5019009;28;1232;-69
2024/01/31 04:46:51;;;;;;;;;;;17.00;62.90;;;;;;5017762;28;1594;-68
2024/01/31 04:49:16;;;;;;;;;;;17.00;62.90;;;;;;5018338;28;1965;-69
2024/01/31 04:51:42;;;;;;;;;;;17.00;62.90;;;;;;5019176;28;1443;-70
2024/01/31 04:54:07;;;;;;;;;;;17.00;62.90;;;;;;5001059;28;1309;-68
2024/01/31 04:56:33;;;;;;;;;;;17.00;62.90;;;;;;5020190;28;1570;-67
2024/01/31 04:58:59;;;;;;;;;;;17.00;62.90;;;;;;5017409;28;1162;-69
2024/01/31 05:01:24;;;;;;;;;;;17.00;63.00;;;;;;5013650;28;1626;-70
2024/01/31 05:03:50;;;;;;;;;;;17.00;63.00;;;;;;5019250;28;1558;-70
2024/01/31 05:06:15;;;;;;;;;;;17.00;63.00;;;;;;5015846;28;1416;-69
2024/01/31 05:08:40;;;;;;;;;;;16.90;62.90;;;;;;5017661;28;1990;-70
2024/01/31 05:11:06;;;;;;;;;;;17.00;62.90;;;;;;5017695;28;1480;-68
2024/01/31 05:13:32;;;;;;;;;;;17.00;62.90;;;;;;5026963;28;1343;-69
2024/01/31 05:15:57;;;;;;;;;;;17.00;63.60;;;;;;5019170;28;785;-69
2024/01/31 05:18:23;;;;;;;;;;;17.00;62.70;;;;;;5024475;28;1335;-70
2024/01/31 05:20:48;;;;;;;;;;;17.00;62.70;;;;;;5028230;28;1307;-69
2024/01/31 05:23:14;;;;;;;;;;;17.10;62.60;;;;;;5010976;28;1183;-69
2024/01/31 05:25:39;;;;;;;;;;;17.10;62.50;;;;;;5022337;28;1298;-69
2024/01/31 05:28:05;;;;;;;;;;;17.10;62.40;;;;;;5025387;28;1966;-72
2024/01/31 05:30:30;;;;;;;;;;;17.20;62.30;;;;;;5028673;28;1194;-69
2024/01/31 05:32:56;;;;;;;;;;;17.20;62.10;;;;;;5018517;28;1178;-69
2024/01/31 05:35:21;;;;;;;;;;;17.20;62.00;;;;;;5018797;28;871;-69
2024/01/31 05:37:47;;;;;;;;;;;17.20;61.90;;;;;;5024192;28;1343;-68
2024/01/31 05:40:16;;;;;;;;;;;17.30;61.90;;;;;;5029647;28;872;-69
2024/01/31 05:42:44;;;;;;;;;;;17.30;61.70;;;;;;5030400;28;867;-70
2024/01/31 05:45:10;;;;;;;;;;;17.30;61.60;;;;;;5023790;28;1141;-70
2024/01/31 05:47:35;;;;;;;;;;;17.30;61.60;;;;;;5027256;28;1973;-73
2024/01/31 05:50:01;;;;;;;;;;;17.40;61.50;;;;;;5030678;28;816;-71
2024/01/31 05:52:26;;;;;;;;;;;17.40;61.50;;;;;;5031188;28;828;-70
2024/01/31 05:54:52;;;;;;;;;;;17.40;61.40;;;;;;5030568;28;785;-71
2024/01/31 05:57:17;;;;;;;;;;;17.40;61.30;;;;;;5027158;28;1349;-70
2024/01/31 05:59:43;;;;;;;;;;;17.40;61.20;;;;;;5026050;28;1112;-70
2024/01/31 06:02:08;;;;;;;;;;;17.50;61.20;;;;;;5020230;28;999;-71
2024/01/31 06:04:33;;;;;;;;;;;17.40;61.00;;;;;;5026694;28;840;-73
2024/01/31 06:06:59;;;;;;;;;;;17.50;61.10;;;;;;5026848;28;1281;-72
2024/01/31 06:09:26;;;;;;;;;;;17.50;61.00;;;;;;5016512;28;1975;-70
2024/01/31 06:11:51;;;;;;;;;;;17.50;61.00;;;;;;5029828;28;877;-70
2024/01/31 06:14:17;;;;;;;;;;;17.50;60.90;;;;;;5027036;28;995;-70
2024/01/31 06:16:42;;;;;;;;;;;17.50;60.90;;;;;;5029906;28;1363;-71
2024/01/31 06:19:08;;;;;;;;;;;17.50;60.90;;;;;;5024070;28;1466;-68
2024/01/31 06:21:34;;;;;;;;;;;17.50;60.90;;;;;;5019110;28;1615;-68
2024/01/31 06:23:59;;;;;;;;;;;17.60;60.90;;;;;;5019248;28;1118;-68
2024/01/31 06:26:28;;;;;;;;;;;17.50;60.80;;;;;;5021781;28;1494;-69
2024/01/31 06:28:53;;;;;;;;;;;17.60;60.90;;;;;;5022425;28;1981;-70
2024/01/31 06:31:28;;;;;;;;;;;17.60;60.90;;;;;;5021275;28;1503;-73
2024/01/31 06:33:54;;;;;;;;;;;17.60;60.90;;;;;;5022847;28;1292;-69
2024/01/31 06:36:19;;;;;;;;;;;17.60;60.90;;;;;;5022012;28;1571;-70
2024/01/31 06:38:45;;;;;;;;;;;17.60;60.90;;;;;;5019528;28;1744;-70
2024/01/31 06:41:14;;;;;;;;;;;17.50;60.80;;;;;;5019754;28;1598;-70
2024/01/31 06:43:40;;;;;;;;;;;17.50;60.80;;;;;;5019136;28;1457;-70
2024/01/31 06:46:05;;;;;;;;;;;17.60;60.80;;;;;;5019362;28;1563;-70
2024/01/31 06:48:30;;;;;;;;;;;17.60;60.80;;;;;;5051143;28;1898;-70
2024/01/31 06:50:56;;;;;;;;;;;17.50;60.80;;;;;;5018364;28;1377;-70
2024/01/31 06:53:22;;;;;;;;;;;17.50;60.80;;;;;;5017879;28;1528;-70
2024/01/31 06:55:47;;;;;;;;;;;17.60;60.80;;;;;;5022647;28;1766;-70
2024/01/31 06:58:13;;;;;;;;;;;17.60;60.80;;;;;;5006441;28;1530;-70
2024/01/31 07:00:38;;;;;;;;;;;17.60;60.80;;;;;;5020471;28;1556;-70
2024/01/31 07:03:04;;;;;;;;;;;17.60;60.80;;;;;;5021902;28;1564;-70
2024/01/31 07:05:29;;;;;;;;;;;17.60;60.80;;;;;;5021955;28;1448;-71
2024/01/31 07:07:55;;;;;;;;;;;17.60;60.90;;;;;;5021419;28;1962;-69
2024/01/31 07:10:20;;;;;;;;;;;17.60;60.80;;;;;;5022669;28;1213;-70
2024/01/31 07:12:45;;;;;;;;;;;17.50;60.80;;;;;;5023489;28;1664;-71
2024/01/31 07:15:11;;;;;;;;;;;17.60;60.90;;;;;;5022505;28;1260;-69
2024/01/31 07:17:36;;;;;;;;;;;17.60;60.90;;;;;;5004588;28;1444;-70
2024/01/31 07:20:03;;;;;;;;;;;17.60;60.80;;;;;;5024876;28;1304;-70
2024/01/31 07:22:28;;;;;;;;;;;17.50;60.80;;;;;;5023883;28;1918;-69
2024/01/31 07:24:54;;;;;;;;;;;17.50;60.80;;;;;;5022190;28;2014;-72
2024/01/31 07:27:19;;;;;;;;;;;17.60;60.90;;;;;;5019289;28;1898;-71
2024/01/31 07:29:46;;;;;;;;;;;17.50;60.80;;;;;;5017009;28;2084;-70
2024/01/31 07:32:11;;;;;;;;;;;17.60;60.80;;;;;;5015499;28;2103;-70
2024/01/31 07:34:37;;;;;;;;;;;17.60;60.80;;;;;;5020163;28;1227;-70
2024/01/31 07:37:03;;;;;;;;;;;17.60;60.80;;;;;;5019680;28;1278;-71
2024/01/31 07:39:29;;;;;;;;;;;17.60;60.80;;;;;;5020087;28;1119;-70
2024/01/31 07:41:54;;;;;;;;;;;17.50;60.70;;;;;;5021901;28;954;-70
2024/01/31 07:44:20;;;;;;;;;;;17.60;60.80;;;;;;5021136;28;1361;-67
2024/01/31 07:46:45;;;;;;;;;;;17.60;60.80;;;;;;5032233;28;1268;-67
2024/01/31 07:49:11;;;;;;;;;;;17.60;60.80;;;;;;5031166;28;1902;-67
2024/01/31 07:51:43;;;;;;;;;;;17.60;60.80;;;;;;5025838;28;1418;-68
2024/01/31 07:54:09;;;;;;;;;;;17.50;60.80;;;;;;5018141;28;1457;-68
2024/01/31 07:56:34;;;;;;;;;;;17.50;60.80;;;;;;5019558;28;1244;-68
2024/01/31 07:58:59;;;;;;;;;;;17.50;60.90;;;;;;5022716;28;1300;-70
2024/01/31 08:01:25;;;;;;;;;;;17.50;60.90;;;;;;5020993;28;1436;-67
2024/01/31 08:03:50;;;;;;;;;;;17.50;60.90;;;;;;5020275;28;1334;-68
2024/01/31 08:06:16;;;;;;;;;;;17.50;60.90;;;;;;5018754;28;1402;-68
2024/01/31 08:08:45;;;;;;;;;;;17.50;61.00;;;;;;5018609;28;1914;-68
2024/01/31 08:11:11;;;;;;;;;;;17.50;61.00;;;;;;5016543;28;1489;-68
2024/01/31 08:13:37;;;;;;;;;;;17.50;61.00;;;;;;5026094;28;1252;-68
2024/01/31 08:16:02;;;;;;;;;;;17.50;61.10;;;;;;5017227;28;1502;-68
2024/01/31 08:18:28;;;;;;;;;;;17.50;61.00;;;;;;5016672;28;1168;-68
2024/01/31 08:20:53;;;;;;;;;;;17.50;61.10;;;;;;5019848;28;1323;-67
2024/01/31 08:23:18;;;;;;;;;;;17.50;61.10;;;;;;5018258;28;1259;-69
2024/01/31 08:25:44;;;;;;;;;;;17.50;61.00;;;;;;5019078;28;1393;-69
2024/01/31 08:28:09;;;;;;;;;;;17.50;61.10;;;;;;5019752;28;1967;-69
2024/01/31 08:30:35;;;;;;;;;;;17.50;61.00;;;;;;5019868;28;1444;-69
2024/01/31 08:33:01;;;;;;;;;;;17.50;61.10;;;;;;5017782;28;1278;-68
2024/01/31 08:35:26;;;;;;;;;;;17.50;61.00;;;;;;5017733;28;1249;-68
2024/01/31 08:37:54;;;;;;;;;;;17.50;61.00;;;;;;5019441;28;1511;-68
2024/01/31 08:40:19;;;;;;;;;;;17.50;61.00;;;;;;5015145;28;1791;-69
2024/01/31 08:42:45;;;;;;;;;;;17.50;61.00;;;;;;5022989;28;1592;-68
2024/01/31 08:45:11;;;;;;;;;;;17.50;61.00;;;;;;5019935;28;1384;-68
2024/01/31 08:47:36;;;;;;;;;;;17.50;60.90;;;;;;5017162;28;1961;-67
2024/01/31 08:50:02;;;;;;;;;;;17.50;61.00;;;;;;5025787;28;1404;-67
2024/01/31 08:52:27;;;;;;;;;;;17.50;60.90;;;;;;5018356;28;1456;-68
2024/01/31 08:54:53;;;;;;;;;;;17.50;60.90;;;;;;5019442;28;1361;-68
2024/01/31 08:57:18;;;;;;;;;;;17.50;61.00;;;;;;5017232;28;1315;-67
2024/01/31 08:59:44;;;;;;;;;;;17.50;60.90;;;;;;5019642;28;1442;-68
2024/01/31 09:02:09;;;;;;;;;;;17.50;60.90;;;;;;5017360;28;1546;-68
2024/01/31 09:04:35;;;;;;;;;;;17.50;60.80;;;;;;5020624;28;1345;-68
2024/01/31 09:07:00;;;;;;;;;;;17.50;60.90;;;;;;5018000;28;1329;-68
2024/01/31 09:09:26;;;;;;;;;;;17.50;60.90;;;;;;5019124;28;1977;-70
2024/01/31 09:11:52;;;;;;;;;;;17.60;60.90;;;;;;5017637;28;2262;-70
2024/01/31 09:14:17;;;;;;;;;;;17.60;60.90;;;;;;5016762;28;2056;-69
2024/01/31 09:16:43;;;;;;;;;;;17.50;60.80;;;;;;5021368;28;1670;-70
2024/01/31 09:19:09;;;;;;;;;;;17.60;60.80;;;;;;5021005;28;1512;-68
2024/01/31 09:21:35;;;;;;;;;;;17.60;60.80;;;;;;5019957;28;1514;-68
2024/01/31 09:24:00;;;;;;;;;;;17.60;60.80;;;;;;5018911;28;2110;-68
2024/01/31 09:26:26;;;;;;;;;;;17.60;60.80;;;;;;5020186;28;1631;-70
2024/01/31 09:28:51;;;;;;;;;;;17.60;60.80;;;;;;5027720;28;2120;-71
2024/01/31 09:31:23;;;;;;;;;;;17.60;60.80;;;;;;5021109;28;1494;-69
2024/01/31 09:33:49;;;;;;;;;;;17.60;60.70;;;;;;5021445;28;1602;-68
2024/01/31 09:36:14;;;;;;;;;;;17.60;60.70;;;;;;5020165;28;1446;-68
2024/01/31 09:38:40;;;;;;;;;;;17.60;60.70;;;;;;5018776;28;1264;-69
2024/01/31 09:41:05;;;;;;;;;;;17.60;60.70;;;;;;5019311;28;1635;-69
2024/01/31 09:43:31;;;;;;;;;;;17.60;60.70;;;;;;5020368;28;1593;-67
2024/01/31 09:45:56;;;;;;;;;;;17.60;60.70;;;;;;5018589;28;1286;-69
2024/01/31 09:48:23;;;;;;;;;;;17.60;60.70;;;;;;5020230;28;1915;-68
2024/01/31 09:50:48;;;;;;;;;;;17.60;60.90;;;;;;5030389;28;1368;-66
2024/01/31 09:53:14;;;;;;;;;;;17.60;60.70;;;;;;5022032;28;1330;-67
2024/01/31 09:55:39;;;;;;;;;;;17.60;60.80;;;;;;5019881;28;1501;-68
2024/01/31 09:58:05;;;;;;;;;;;17.60;60.80;;;;;;5021990;28;1369;-67
2024/01/31 10:00:31;;;;;;;;;;;17.50;60.80;;;;;;5023627;28;1213;-69
2024/01/31 10:02:56;;;;;;;;;;;17.50;60.90;;;;;;5022389;28;1712;-70
2024/01/31 10:05:22;;;;;;;;;;;17.50;60.90;;;;;;5021949;28;1252;-69
2024/01/31 10:07:47;;;;;;;;;;;17.50;60.90;;;;;;5020881;28;1906;-69
2024/01/31 10:10:12;;;;;;;;;;;17.50;61.00;;;;;;5022257;28;1753;-69
2024/01/31 10:12:38;;;;;;;;;;;17.50;61.00;;;;;;5020827;28;1342;-69
2024/01/31 10:15:07;;;;;;;;;;;17.50;61.00;;;;;;5021098;28;1429;-69
2024/01/31 10:17:34;;;;;;;;;;;17.50;61.00;;;;;;5038583;28;1464;-69
2024/01/31 10:20:04;;;;;;;;;;;17.50;61.00;;;;;;5006274;28;1254;-69
2024/01/31 10:22:33;;;;;;;;;;;17.50;61.00;;;;;;5020417;28;1361;-70
2024/01/31 10:24:58;;;;;;;;;;;17.50;60.90;;;;;;5019033;28;1229;-68
2024/01/31 10:27:24;;;;;;;;;;;17.50;61.00;;;;;;5021094;28;1902;-68
2024/01/31 10:29:49;;;;;;;;;;;17.50;61.00;;;;;;5021670;28;1625;-69
2024/01/31 10:32:15;;;;;;;;;;;17.50;61.00;;;;;;5019157;28;1437;-74
2024/01/31 10:34:41;;;;;;;;;;;17.50;61.00;;;;;;5021131;28;1281;-69
2024/01/31 10:37:07;;;;;;;;;;;17.50;61.00;;;;;;5011167;28;1471;-67
2024/01/31 10:39:32;;;;;;;;;;;17.50;61.00;;;;;;5022608;28;1371;-68
2024/01/31 10:41:59;;;;;;;;;;;17.50;61.00;;;;;;5006055;28;1661;-69
2024/01/31 10:44:24;;;;;;;;;;;17.50;61.00;;;;;;5027817;28;2284;-69
2024/01/31 10:46:49;;;;;;;;;;;17.50;61.00;;;;;;5020081;28;1443;-70
2024/01/31 10:49:18;;;;;;;;;;;17.50;61.00;;;;;;5020791;28;1910;-68
2024/01/31 10:51:45;;;;;;;;;;;17.50;61.00;;;;;;5022226;28;1628;-70
2024/01/31 10:54:11;;;;;;;;;;;17.50;61.00;;;;;;5019996;28;1253;-71
2024/01/31 10:56:36;;;;;;;;;;;17.50;61.00;;;;;;5019148;28;1352;-70
2024/01/31 10:59:02;;;;;;;;;;;17.50;61.00;;;;;;5016159;28;1336;-70
2024/01/31 11:01:30;;;;;;;;;;;17.50;61.00;;;;;;5005704;28;1357;-70
2024/01/31 11:03:56;;;;;;;;;;;17.50;61.00;;;;;;5024965;28;1495;-70
2024/01/31 11:06:29;;;;;;;;;;;17.50;60.90;;;;;;5021797;28;1326;-70
2024/01/31 11:08:55;;;;;;;;;;;17.50;60.90;;;;;;5021569;28;1883;-69
2024/01/31 11:11:20;;;;;;;;;;;17.50;60.90;;;;;;5023060;28;1390;-69
2024/01/31 11:13:46;;;;;;;;;;;17.50;60.80;;;;;;5020852;28;1453;-70
2024/01/31 11:16:11;;;;;;;;;;;17.50;60.80;;;;;;5005328;28;1375;-72
2024/01/31 11:18:37;;;;;;;;;;;17.50;60.80;;;;;;5016282;28;1470;-72
2024/01/31 11:21:10;;;;;;;;;;;17.50;60.80;;;;;;5017868;28;1378;-72
2024/01/31 11:23:35;;;;;;;;;;;17.50;60.80;;;;;;5019715;28;1355;-72
2024/01/31 11:26:01;;;;;;;;;;;17.50;60.80;;;;;;5011433;28;1560;-73
2024/01/31 11:28:27;;;;;;;;;;;17.50;60.90;;;;;;5021001;28;1906;-73
2024/01/31 11:30:52;;;;;;;;;;;17.60;60.80;;;;;;5017639;28;1363;-74
2024/01/31 11:33:18;;;;;;;;;;;17.60;60.80;;;;;;5021584;28;1502;-73
2024/01/31 11:35:44;;;;;;;;;;;17.50;60.80;;;;;;5019948;28;1585;-74
2024/01/31 11:38:09;;;;;;;;;;;17.50;60.80;;;;;;5017313;28;1412;-74
2024/01/31 11:40:35;;;;;;;;;;;17.50;60.80;;;;;;5021439;28;1599;-74
2024/01/31 11:43:01;;;;;;;;;;;17.50;60.80;;;;;;5023371;28;1234;-74
2024/01/31 11:45:26;;;;;;;;;;;17.50;60.80;;;;;;5018776;28;1436;-74
2024/01/31 11:47:55;;;;;;;;;;;17.50;60.80;;;;;;5018982;28;1964;-75
2024/01/31 11:50:21;;;;;;;;;;;17.50;60.80;;;;;;5001183;28;1597;-75
2024/01/31 11:52:47;;;;;;;;;;;17.50;60.80;;;;;;5022441;28;1644;-71
2024/01/31 11:55:12;;;;;;;;;;;17.60;60.80;;;;;;5021661;28;1405;-74
2024/01/31 11:57:38;;;;;;;;;;;17.60;60.80;;;;;;5000965;28;1304;-74
2024/01/31 12:00:04;;;;;;;;;;;17.60;60.70;;;;;;5018465;28;1449;-73
2024/01/31 12:02:32;;;;;;;;;;;17.60;60.70;;;;;;5020208;28;1316;-73
2024/01/31 12:04:58;;;;;;;;;;;17.60;60.60;;;;;;5022268;28;1330;-73
2024/01/31 12:07:24;;;;;;;;;;;17.60;60.60;;;;;;5018901;28;1952;-73
2024/01/31 12:09:49;;;;;;;;;;;17.60;60.60;;;;;;5020970;28;1403;-72
2024/01/31 12:12:15;;;;;;;;;;;17.60;60.50;;;;;;5020852;28;1344;-71
2024/01/31 12:14:40;;;;;;;;;;;17.60;60.50;;;;;;5022215;28;1430;-73
2024/01/31 12:17:19;;;;;;;;;;;17.70;60.50;;;;;;5017214;28;1371;-72
2024/01/31 12:19:45;;;;;;;;;;;17.70;60.40;;;;;;5028037;28;1394;-73
2024/01/31 12:22:11;;;;;;;;;;;17.60;60.30;;;;;;5020012;28;1229;-72
2024/01/31 12:24:37;;;;;;;;;;;17.70;60.30;;;;;;5023265;28;1343;-72
2024/01/31 12:27:03;;;;;;;;;;;17.70;60.30;;;;;;5016857;28;1391;-72
2024/01/31 12:29:28;;;;;;;;;;;17.70;60.30;;;;;;5019660;28;1975;-72
2024/01/31 12:31:54;;;;;;;;;;;17.70;60.30;;;;;;5003220;28;1253;-70
2024/01/31 12:34:19;;;;;;;;;;;17.70;60.30;;;;;;5019277;28;1333;-71
2024/01/31 12:36:44;;;;;;;;;;;17.70;60.20;;;;;;5024555;28;1359;-71
2024/01/31 12:39:16;;;;;;;;;;;17.70;60.20;;;;;;5021918;28;836;-71
2024/01/31 12:41:42;;;;;;;;;;;17.70;60.30;;;;;;5024001;28;1420;-70
2024/01/31 12:44:07;;;;;;;;;;;17.70;60.20;;;;;;5027247;28;1325;-70
2024/01/31 12:46:33;;;;;;;;;;;17.70;60.20;;;;;;5030260;28;1391;-74
2024/01/31 12:48:58;;;;;;;;;;;17.70;60.20;;;;;;5025465;28;1907;-73
2024/01/31 12:51:27;;;;;;;;;;;17.70;60.10;;;;;;5019786;28;1432;-72
2024/01/31 12:53:52;;;;;;;;;;;17.70;60.10;;;;;;5019263;28;1729;-72
2024/01/31 12:56:18;;;;;;;;;;;17.70;60.20;;;;;;5015115;28;1462;-72
2024/01/31 12:58:44;;;;;;;;;;;17.70;60.10;;;;;;5019739;28;1383;-72
2024/01/31 13:01:09;;;;;;;;;;;17.70;60.10;;;;;;5017459;28;1530;-72
2024/01/31 13:03:35;;;;;;;;;;;17.70;60.20;;;;;;5018221;28;1536;-72
2024/01/31 13:06:01;;;;;;;;;;;17.70;60.10;;;;;;5019756;28;1465;-72
2024/01/31 13:08:31;;;;;;;;;;;17.70;60.10;;;;;;5018342;28;1987;-72
2024/01/31 13:10:56;;;;;;;;;;;17.70;60.10;;;;;;5015995;28;1400;-72
2024/01/31 13:13:22;;;;;;;;;;;17.70;60.10;;;;;;5016289;28;1352;-72
2024/01/31 13:15:47;;;;;;;;;;;17.70;60.10;;;;;;5017274;28;1619;-72
2024/01/31 13:18:13;;;;;;;;;;;17.70;60.20;;;;;;5015344;28;1407;-72
2024/01/31 13:20:38;;;;;;;;;;;17.70;60.20;;;;;;5018922;28;1515;-72
2024/01/31 13:23:03;;;;;;;;;;;17.70;60.20;;;;;;5020599;28;1959;-73
2024/01/31 13:25:29;;;;;;;;;;;17.70;60.20;;;;;;5016048;28;2032;-72
2024/01/31 13:27:54;;;;;;;;;;;17.70;60.20;;;;;;5018644;28;2201;-71
2024/01/31 13:30:21;;;;;;;;;;;17.70;60.30;;;;;;5020603;28;1367;-68
2024/01/31 13:32:46;;;;;;;;;;;17.70;60.30;;;;;;5019379;28;1364;-71
2024/01/31 13:35:12;;;;;;;;;;;17.70;60.30;;;;;;5016071;28;1777;-71
2024/01/31 13:37:37;;;;;;;;;;;17.60;60.30;;;;;;5018957;28;1603;-71
2024/01/31 13:40:03;;;;;;;;;;;17.60;60.30;;;;;;5014062;28;1097;-71
2024/01/31 13:42:29;;;;;;;;;;;17.60;60.40;;;;;;5016225;28;1517;-73
2024/01/31 13:44:55;;;;;;;;;;;17.60;60.40;;;;;;5017202;28;1247;-69
2024/01/31 13:47:23;;;;;;;;;;;17.60;60.50;;;;;;5017739;28;1894;-71
2024/01/31 13:49:48;;;;;;;;;;;17.60;60.50;;;;;;5017265;28;1130;-71
2024/01/31 13:52:14;;;;;;;;;;;17.60;60.50;;;;;;5018817;28;1062;-71
2024/01/31 13:54:39;;;;;;;;;;;17.60;60.60;;;;;;5018198;28;1255;-71
2024/01/31 13:57:05;;;;;;;;;;;17.60;60.50;;;;;;5018345;28;1209;-70
2024/01/31 13:59:30;;;;;;;;;;;17.60;60.60;;;;;;5015718;28;1393;-68
2024/01/31 14:01:56;;;;;;;;;;;17.60;60.70;;;;;;5021816;28;1243;-71
2024/01/31 14:04:25;;;;;;;;;;;17.60;60.70;;;;;;5023207;28;1256;-71
2024/01/31 14:06:51;;;;;;;;;;;17.60;60.70;;;;;;5021345;28;1631;-71
2024/01/31 14:09:17;;;;;;;;;;;17.60;60.80;;;;;;5023011;28;1907;-72
2024/01/31 14:11:43;;;;;;;;;;;17.50;60.60;;;;;;5020411;28;1566;-70
2024/01/31 14:14:08;;;;;;;;;;;17.50;60.70;;;;;;5025124;28;1141;-72
2024/01/31 14:16:34;;;;;;;;;;;17.50;60.70;;;;;;5021380;28;1457;-71
2024/01/31 14:18:59;;;;;;;;;;;17.50;60.70;;;;;;5025374;28;1369;-71
2024/01/31 14:21:25;;;;;;;;;;;17.50;60.70;;;;;;5023285;28;1352;-70